Time;durP1;ratioP1;P1;durP2;ratioP2;P2;SDS_P1;SDS_P2;PMS_P1;PMS_P2;Temp;Humidity;BMP_temperature;BMP_pressure;BME280_temperature;BME280_humidity;BME280_pressure;Samples;Min_cycle;Max_cycle;Signal;HPM_P1;HPM_P2
2022/12/30 00:01:14;;;;;;;29.50;11.63;;;6.30;99.90;;;;;;5007234;28;20559;-75
2022/12/30 00:03:39;;;;;;;32.07;9.90;;;6.40;99.90;;;;;;4982345;28;20045;-75
2022/12/30 00:06:14;;;;;;;32.73;22.63;;;6.30;99.90;;;;;;4986457;28;20050;-76
2022/12/30 00:08:47;;;;;;;29.60;10.70;;;6.30;99.90;;;;;;4995237;28;20076;-75
2022/12/30 00:11:34;;;;;;;29.10;9.50;;;6.30;99.90;;;;;;5008742;28;20079;-75
2022/12/30 00:34:05;;;;;;;24.40;6.57;;;6.10;99.90;;;;;;5008823;28;20048;-75
2022/12/30 00:36:31;;;;;;;30.43;7.23;;;6.00;99.90;;;;;;4989857;28;20068;-76
2022/12/30 00:38:57;;;;;;;20.67;7.10;;;6.00;99.90;;;;;;5007960;28;20507;-75
2022/12/30 00:44:07;;;;;;;27.47;9.23;;;6.00;99.90;;;;;;5009174;28;20443;-75
2022/12/30 00:46:34;;;;;;;31.47;7.43;;;6.10;99.90;;;;;;4995978;28;20046;-75
2022/12/30 00:57:13;;;;;;;26.60;6.73;;;6.10;99.90;;;;;;4996688;28;20072;-75
2022/12/30 00:59:39;;;;;;;29.83;6.63;;;6.00;99.90;;;;;;5029517;28;20408;-75
2022/12/30 01:02:05;;;;;;;32.43;6.83;;;5.90;99.90;;;;;;5009072;28;20065;-74
2022/12/30 01:04:30;;;;;;;41.63;8.33;;;5.70;99.90;;;;;;5010117;28;20056;-76
2022/12/30 01:06:56;;;;;;;28.83;8.80;;;5.70;99.90;;;;;;4976561;28;20054;-75
2022/12/30 01:09:22;;;;;;;32.80;8.47;;;5.60;99.90;;;;;;5007120;28;20042;-76
2022/12/30 01:14:32;;;;;;;34.40;8.23;;;5.50;99.90;;;;;;5009574;28;20184;-75
2022/12/30 01:16:57;;;;;;;32.60;9.50;;;5.50;99.90;;;;;;4994213;28;20535;-75
2022/12/30 01:19:23;;;;;;;30.90;17.60;;;5.50;99.90;;;;;;5024017;28;20050;-75
2022/12/30 01:21:48;;;;;;;27.17;10.13;;;5.40;99.90;;;;;;5004340;28;20149;-76
2022/12/30 01:24:14;;;;;;;26.67;9.43;;;5.40;99.90;;;;;;4998964;28;20500;-75
2022/12/30 01:26:40;;;;;;;25.20;8.10;;;5.40;99.90;;;;;;4997763;28;20053;-76
2022/12/30 01:29:05;;;;;;;29.77;7.20;;;5.30;99.90;;;;;;5010372;28;20068;-75
2022/12/30 01:31:31;;;;;;;30.97;10.63;;;5.30;99.90;;;;;;5010989;28;20050;-76
2022/12/30 01:33:57;;;;;;;28.87;7.87;;;5.20;99.90;;;;;;4994347;28;20065;-76
2022/12/30 01:36:22;;;;;;;29.10;6.33;;;5.20;99.90;;;;;;4999127;28;20045;-76
2022/12/30 01:38:48;;;;;;;30.47;7.50;;;5.20;99.90;;;;;;5007126;28;20444;-75
2022/12/30 01:41:14;;;;;;;32.67;6.67;;;5.10;99.90;;;;;;5012587;28;20041;-75
2022/12/30 01:43:44;;;;;;;34.60;7.70;;;5.20;99.90;;;;;;4997898;28;20125;-75
2022/12/30 01:46:15;;;;;;;31.17;6.03;;;5.20;99.90;;;;;;4985765;28;20054;-76
2022/12/30 01:48:41;;;;;;;28.00;6.70;;;5.20;99.90;;;;;;4966610;28;20078;-75
2022/12/30 01:51:15;;;;;;;30.83;9.83;;;5.20;99.90;;;;;;4988724;28;20089;-75
2022/12/30 01:53:44;;;;;;;33.47;6.50;;;5.30;99.90;;;;;;4972205;28;20109;-75
2022/12/30 01:56:31;;;;;;;28.97;5.77;;;5.30;99.90;;;;;;4966297;28;20137;-76
2022/12/30 01:59:18;;;;;;;19.43;5.43;;;5.10;99.90;;;;;;4970825;28;20078;-75
2022/12/30 02:01:44;;;;;;;38.00;8.80;;;5.10;99.90;;;;;;4989479;28;20050;-76
2022/12/30 02:04:15;;;;;;;33.63;7.13;;;5.00;99.90;;;;;;4992245;28;20053;-75
2022/12/30 02:07:01;;;;;;;34.65;12.02;;;4.90;99.90;;;;;;4977627;28;20197;-76
2022/12/30 02:09:28;;;;;;;36.83;11.10;;;4.90;99.90;;;;;;4989990;28;20447;-75
2022/12/30 02:11:55;;;;;;;37.03;10.47;;;4.90;99.90;;;;;;4992753;28;20053;-76
2022/12/30 02:14:21;;;;;;;37.83;12.53;;;4.90;99.90;;;;;;5009217;28;20434;-75
2022/12/30 02:17:30;;;;;;;31.27;7.60;;;5.00;99.90;;;;;;5011712;28;20061;-75
2022/12/30 02:20:11;;;;;;;25.10;6.60;;;5.00;99.90;;;;;;4991888;28;20411;-75
2022/12/30 02:22:48;;;;;;;38.28;7.40;;;5.00;99.90;;;;;;4991525;28;20057;-75
2022/12/30 02:25:53;;;;;;;36.37;7.37;;;4.90;99.90;;;;;;4992228;28;20377;-75
2022/12/30 02:28:44;;;;;;;34.37;6.53;;;5.00;99.90;;;;;;4975630;28;20256;-76
2022/12/30 02:31:25;;;;;;;30.27;6.63;;;5.00;99.90;;;;;;4992463;28;20047;-75
2022/12/30 02:34:16;;;;;;;44.53;24.23;;;5.00;99.90;;;;;;5006487;28;20053;-75
2022/12/30 02:36:50;;;;;;;38.40;11.38;;;5.10;99.90;;;;;;4976752;28;20059;-75
2022/12/30 02:39:37;;;;;;;37.87;14.37;;;5.10;99.90;;;;;;4991476;28;20068;-76
2022/12/30 02:45:45;;;;;;;37.73;10.13;;;5.10;99.90;;;;;;4979947;28;20050;-75
2022/12/30 02:48:16;;;;;;;39.93;13.03;;;5.10;99.90;;;;;;4959826;28;20050;-76
2022/12/30 02:53:32;;;;;;;32.77;9.47;;;5.10;99.90;;;;;;4990382;28;20101;-75
2022/12/30 02:55:58;;;;;;;35.03;11.53;;;5.20;99.90;;;;;;4991489;28;20130;-75
2022/12/30 02:58:29;;;;;;;45.97;27.33;;;5.00;99.90;;;;;;4974771;28;20487;-75
2022/12/30 03:04:38;;;;;;;41.53;10.20;;;5.10;99.90;;;;;;4990730;28;20189;-76
2022/12/30 03:07:09;;;;;;;42.20;9.00;;;5.20;99.90;;;;;;4975154;28;20058;-76
2022/12/30 03:09:35;;;;;;;;;;;5.10;99.90;;;;;;4974445;28;20130;-76
2022/12/30 03:12:22;;;;;;;34.00;6.77;;;5.10;99.90;;;;;;4991450;28;20012;-75
2022/12/30 03:15:03;;;;;;;35.73;7.40;;;5.20;99.90;;;;;;4990984;28;20464;-76
2022/12/30 03:17:36;;;;;;;33.72;5.95;;;5.10;99.90;;;;;;4974884;28;20544;-75
2022/12/30 03:20:07;;;;;;;36.77;10.80;;;5.00;99.90;;;;;;4991232;28;20050;-75
2022/12/30 03:28:06;;;;;;;42.10;24.40;;;4.90;99.90;;;;;;4974471;28;20073;-75
2022/12/30 03:30:48;;;;;;;35.73;13.37;;;5.00;99.90;;;;;;5022934;28;20065;-76
2022/12/30 03:33:15;;;;;;;40.17;9.93;;;4.90;99.90;;;;;;4989578;28;20058;-75
2022/12/30 03:35:50;;;;;;;37.33;7.77;;;5.00;99.90;;;;;;5006299;28;20053;-75
2022/12/30 03:38:18;;;;;;;39.63;12.43;;;5.00;99.90;;;;;;4975468;28;20046;-75
2022/12/30 03:40:47;;;;;;;44.40;38.30;;;4.90;99.90;;;;;;4990886;28;20137;-75
2022/12/30 03:43:14;;;;;;;36.37;18.10;;;4.80;99.90;;;;;;4989513;28;20046;-75
2022/12/30 03:45:40;;;;;;;38.90;11.30;;;4.80;99.90;;;;;;4991133;28;20050;-75
2022/12/30 03:48:05;;;;;;;34.47;8.63;;;4.80;99.90;;;;;;4974400;28;20088;-75
2022/12/30 03:50:31;;;;;;;37.67;8.33;;;4.70;99.90;;;;;;5022305;28;20050;-75
2022/12/30 03:52:57;;;;;;;31.13;13.73;;;4.80;99.90;;;;;;4989924;28;20058;-75
2022/12/30 03:55:22;;;;;;;34.73;8.10;;;4.70;99.90;;;;;;4990049;28;20057;-76
2022/12/30 03:57:48;;;;;;;45.40;12.33;;;4.70;99.90;;;;;;4974394;28;20046;-75
2022/12/30 04:00:14;;;;;;;39.67;7.63;;;4.70;99.90;;;;;;4990448;28;20069;-75
2022/12/30 04:02:39;;;;;;;38.37;8.37;;;4.70;99.90;;;;;;5021508;28;20105;-76
2022/12/30 04:05:07;;;;;;;30.87;9.20;;;4.60;99.90;;;;;;4990403;28;20132;-76
2022/12/30 04:07:33;;;;;;;38.00;9.83;;;4.50;99.90;;;;;;5005375;28;20046;-76
2022/12/30 04:10:00;;;;;;;34.83;9.13;;;4.60;99.90;;;;;;4990083;28;20081;-75
2022/12/30 04:12:25;;;;;;;36.03;12.57;;;4.50;99.90;;;;;;4989884;28;20050;-75
2022/12/30 04:14:51;;;;;;;40.80;14.30;;;4.60;99.90;;;;;;4990548;28;20057;-75
2022/12/30 04:17:17;;;;;;;35.23;15.53;;;4.50;99.90;;;;;;4974487;28;20081;-75
2022/12/30 04:19:42;;;;;;;39.80;10.00;;;4.50;99.90;;;;;;4988907;28;20054;-75
2022/12/30 04:22:08;;;;;;;40.93;9.30;;;4.50;99.90;;;;;;4989243;28;20046;-75
2022/12/30 04:24:34;;;;;;;40.53;18.10;;;4.40;99.90;;;;;;5021746;28;20104;-75
2022/12/30 04:26:59;;;;;;;37.87;12.97;;;4.60;99.90;;;;;;4990420;28;20081;-76
2022/12/30 04:29:25;;;;;;;33.13;12.07;;;4.60;99.90;;;;;;4987705;28;20050;-76
2022/12/30 04:31:50;;;;;;;30.13;8.77;;;4.50;99.90;;;;;;4990148;28;20129;-75
2022/12/30 04:34:16;;;;;;;38.80;10.20;;;4.50;99.90;;;;;;4988719;28;20468;-76
2022/12/30 04:36:43;;;;;;;35.97;11.80;;;4.50;99.90;;;;;;4976966;28;20074;-75
2022/12/30 04:39:08;;;;;;;32.43;11.80;;;4.50;99.90;;;;;;5021649;28;20133;-75
2022/12/30 04:41:34;;;;;;;40.20;11.27;;;4.50;99.90;;;;;;4990130;28;20463;-76
2022/12/30 04:44:02;;;;;;;31.47;10.23;;;4.50;99.90;;;;;;4989371;28;20049;-76
2022/12/30 04:46:28;;;;;;;38.87;16.43;;;4.60;99.90;;;;;;4976928;28;20050;-75
2022/12/30 04:48:54;;;;;;;35.40;19.30;;;4.60;99.90;;;;;;5017009;28;20459;-75
2022/12/30 04:51:20;;;;;;;27.83;12.50;;;4.90;99.90;;;;;;4990218;28;20113;-76
2022/12/30 04:53:46;;;;;;;28.77;13.20;;;4.80;99.90;;;;;;4989274;28;20551;-75
2022/12/30 04:56:12;;;;;;;29.00;8.90;;;4.70;99.90;;;;;;4981176;28;20420;-76
2022/12/30 04:58:38;;;;;;;37.30;24.27;;;4.70;99.90;;;;;;4982896;28;20046;-75
2022/12/30 05:01:04;;;;;;;32.67;9.30;;;4.70;99.90;;;;;;4992135;28;20042;-75
2022/12/30 05:03:30;;;;;;;34.37;15.53;;;4.70;99.90;;;;;;4993144;28;20050;-75
2022/12/30 05:05:56;;;;;;;29.87;13.87;;;4.80;99.90;;;;;;4993761;28;20069;-75
2022/12/30 05:08:22;;;;;;;40.77;21.97;;;4.80;99.90;;;;;;4975724;28;20444;-76
2022/12/30 05:10:47;;;;;;;29.13;9.67;;;4.90;99.90;;;;;;4991489;28;20125;-75
2022/12/30 05:13:13;;;;;;;39.40;18.60;;;4.90;99.90;;;;;;5001101;28;20095;-76
2022/12/30 05:15:39;;;;;;;31.77;20.13;;;4.90;99.90;;;;;;4994943;28;20053;-76
2022/12/30 05:18:04;;;;;;;35.03;11.93;;;5.00;99.90;;;;;;4996182;28;20050;-76
2022/12/30 05:20:30;;;;;;;39.97;22.23;;;5.00;99.90;;;;;;5013145;28;20045;-75
2022/12/30 05:22:56;;;;;;;43.90;14.70;;;5.10;99.90;;;;;;5012841;28;20104;-75
2022/12/30 05:28:06;;;;;;;31.13;17.50;;;5.00;99.90;;;;;;4997209;28;20270;-75
2022/12/30 05:30:31;;;;;;;35.57;16.90;;;5.10;99.90;;;;;;5012801;28;20042;-76
2022/12/30 05:32:57;;;;;;;32.97;13.37;;;5.10;99.90;;;;;;5012229;28;20049;-75
2022/12/30 05:35:23;;;;;;;35.27;13.33;;;5.10;99.90;;;;;;5005833;28;20054;-76
2022/12/30 05:37:48;;;;;;;40.43;19.77;;;5.20;99.90;;;;;;4977915;28;20057;-75
2022/12/30 05:40:14;;;;;;;41.67;22.33;;;5.20;99.90;;;;;;4992816;28;20061;-75
2022/12/30 05:42:40;;;;;;;51.70;30.23;;;5.00;99.90;;;;;;4997729;28;20046;-75
2022/12/30 05:45:06;;;;;;;48.80;42.20;;;5.00;99.90;;;;;;5000908;28;20553;-75
2022/12/30 05:47:32;;;;;;;38.77;18.50;;;5.00;99.90;;;;;;4979762;28;20099;-76
2022/12/30 05:49:58;;;;;;;37.00;20.33;;;5.00;99.90;;;;;;5009038;28;20046;-76
2022/12/30 05:52:24;;;;;;;46.03;28.57;;;5.00;99.90;;;;;;5008742;28;20045;-76
2022/12/30 05:54:50;;;;;;;43.60;24.60;;;5.00;99.90;;;;;;5009610;28;20053;-76
2022/12/30 05:57:15;;;;;;;42.60;21.60;;;5.10;99.90;;;;;;4995372;28;20050;-76
2022/12/30 05:59:41;;;;;;;44.67;33.60;;;5.10;99.90;;;;;;5010660;28;20399;-76
2022/12/30 06:02:07;;;;;;;56.07;38.60;;;5.30;99.90;;;;;;5011475;28;20115;-76
2022/12/30 06:04:32;;;;;;;35.90;24.30;;;5.20;99.90;;;;;;5012030;28;20049;-76
2022/12/30 06:06:58;;;;;;;58.40;52.63;;;5.30;99.90;;;;;;4996567;28;20141;-75
2022/12/30 06:09:24;;;;;;;54.87;49.00;;;5.20;99.90;;;;;;5011436;28;20496;-75
2022/12/30 06:11:49;;;;;;;37.33;22.90;;;5.30;99.90;;;;;;5010710;28;20046;-76
2022/12/30 06:14:17;;;;;;;61.77;56.00;;;5.40;99.90;;;;;;5011330;28;20136;-76
2022/12/30 06:16:43;;;;;;;41.47;37.47;;;5.20;99.90;;;;;;4996349;28;20065;-76
2022/12/30 06:19:09;;;;;;;49.40;44.57;;;5.20;99.90;;;;;;5009713;28;20057;-76
2022/12/30 06:21:35;;;;;;;37.60;24.97;;;5.10;99.90;;;;;;5001221;28;20405;-76
2022/12/30 06:24:01;;;;;;;36.07;24.27;;;5.00;99.90;;;;;;4996824;28;20084;-76
2022/12/30 06:26:27;;;;;;;67.67;61.67;;;4.90;99.90;;;;;;4980269;28;20408;-75
2022/12/30 06:28:53;;;;;;;51.20;42.43;;;4.90;99.90;;;;;;4985188;28;20524;-75
2022/12/30 06:31:18;;;;;;;34.87;22.03;;;4.70;99.90;;;;;;4990401;28;20042;-76
2022/12/30 06:33:44;;;;;;;32.10;19.37;;;4.70;99.90;;;;;;4990859;28;20050;-76
2022/12/30 06:36:10;;;;;;;38.53;23.10;;;4.60;99.90;;;;;;4970620;28;20062;-76
2022/12/30 06:38:37;;;;;;;50.47;45.00;;;4.60;99.90;;;;;;4968345;28;20049;-76
2022/12/30 06:41:03;;;;;;;28.37;13.73;;;4.60;99.90;;;;;;4989241;28;20050;-75
2022/12/30 06:43:28;;;;;;;43.73;37.20;;;4.50;99.90;;;;;;4988166;28;20046;-76
2022/12/30 06:45:54;;;;;;;31.13;12.13;;;4.50;99.90;;;;;;4989508;28;20054;-76
2022/12/30 06:48:20;;;;;;;34.00;21.90;;;4.50;99.90;;;;;;4968534;28;20049;-76
2022/12/30 06:50:46;;;;;;;32.13;16.73;;;4.40;99.90;;;;;;5010996;28;20054;-75
2022/12/30 06:53:12;;;;;;;34.60;16.67;;;4.30;99.90;;;;;;5011173;28;20548;-75
2022/12/30 06:55:38;;;;;;;33.37;17.77;;;4.30;99.90;;;;;;5011048;28;20050;-75
2022/12/30 06:58:05;;;;;;;37.17;26.90;;;4.30;99.90;;;;;;4995379;28;20077;-75
2022/12/30 07:00:31;;;;;;;26.30;12.73;;;4.30;99.90;;;;;;4997946;28;20064;-76
2022/12/30 07:02:57;;;;;;;33.20;19.40;;;4.30;99.90;;;;;;4991574;28;20052;-75
2022/12/30 07:05:23;;;;;;;35.90;16.67;;;4.20;99.90;;;;;;4991525;28;20046;-75
2022/12/30 07:07:48;;;;;;;37.63;18.43;;;4.20;99.90;;;;;;4981740;28;20400;-75
2022/12/30 07:10:14;;;;;;;34.50;20.13;;;4.20;99.90;;;;;;5010684;28;20116;-75
2022/12/30 07:12:40;;;;;;;43.00;25.57;;;4.20;99.90;;;;;;5010196;28;20046;-75
2022/12/30 07:15:06;;;;;;;29.83;11.93;;;4.20;99.90;;;;;;5010561;28;20050;-76
2022/12/30 07:17:32;;;;;;;26.63;11.50;;;4.10;99.90;;;;;;4973824;28;20053;-75
2022/12/30 07:19:58;;;;;;;29.07;12.37;;;4.20;99.90;;;;;;4991437;28;20042;-76
2022/12/30 07:22:23;;;;;;;31.00;17.73;;;4.10;99.90;;;;;;4988653;28;20540;-75
2022/12/30 07:24:49;;;;;;;32.43;18.60;;;4.10;99.90;;;;;;4989561;28;20338;-76
2022/12/30 07:27:15;;;;;;;32.87;21.97;;;4.30;99.90;;;;;;4974304;28;20050;-75
2022/12/30 07:29:40;;;;;;;29.37;9.40;;;4.20;99.90;;;;;;4989664;28;20060;-75
2022/12/30 07:32:07;;;;;;;27.83;13.20;;;4.10;99.90;;;;;;4990246;28;20125;-75
2022/12/30 07:34:34;;;;;;;32.23;12.93;;;4.20;99.90;;;;;;5020480;28;20507;-76
2022/12/30 07:37:01;;;;;;;31.10;11.10;;;4.10;99.90;;;;;;5005752;28;20478;-76
2022/12/30 07:39:26;;;;;;;32.00;10.33;;;4.10;99.90;;;;;;4990718;28;20054;-76
2022/12/30 07:41:52;;;;;;;27.90;11.73;;;4.30;99.90;;;;;;4989017;28;20089;-75
2022/12/30 07:44:18;;;;;;;26.77;12.43;;;4.10;99.90;;;;;;4989842;28;20054;-76
2022/12/30 07:46:43;;;;;;;25.50;12.90;;;4.10;99.90;;;;;;4974384;28;20038;-76
2022/12/30 07:49:09;;;;;;;33.03;16.97;;;4.20;99.90;;;;;;4988649;28;20346;-75
2022/12/30 07:51:35;;;;;;;33.73;29.63;;;4.20;99.90;;;;;;4990010;28;20072;-76
2022/12/30 07:54:00;;;;;;;28.30;11.27;;;4.20;99.90;;;;;;4989717;28;20061;-76
2022/12/30 07:56:26;;;;;;;24.80;9.80;;;4.20;99.90;;;;;;4958834;28;20686;-76
2022/12/30 07:58:55;;;;;;;31.07;12.13;;;4.10;99.90;;;;;;4973997;28;20054;-75
2022/12/30 08:01:21;;;;;;;34.80;20.57;;;4.20;99.90;;;;;;4983271;28;20530;-76
2022/12/30 08:03:46;;;;;;;27.97;8.80;;;4.30;99.90;;;;;;4968187;28;20127;-76
2022/12/30 08:06:15;;;;;;;37.20;31.30;;;4.20;99.90;;;;;;4958199;28;20059;-76
2022/12/30 08:08:41;;;;;;;30.77;20.33;;;4.30;99.90;;;;;;4960799;28;20093;-76
2022/12/30 08:11:08;;;;;;;25.30;15.37;;;4.20;99.90;;;;;;4964954;28;20503;-75
2022/12/30 08:13:37;;;;;;;31.27;20.17;;;4.20;99.90;;;;;;4997951;28;20035;-76
2022/12/30 08:16:05;;;;;;;30.77;27.73;;;4.30;99.90;;;;;;4980851;28;20081;-75
2022/12/30 08:18:30;;;;;;;41.10;37.23;;;4.30;99.90;;;;;;4988092;28;20039;-76
2022/12/30 08:21:08;;;;;;;29.20;11.07;;;4.30;99.90;;;;;;4966549;28;20061;-76
2022/12/30 08:23:34;;;;;;;35.07;31.10;;;4.30;99.90;;;;;;4990784;28;20126;-75
2022/12/30 08:26:09;;;;;;;69.87;63.70;;;4.40;99.90;;;;;;4965171;28;20057;-76
2022/12/30 08:28:35;;;;;;;228.83;211.30;;;4.30;99.90;;;;;;4955851;28;20052;-76
2022/12/30 08:31:16;;;;;;;29.93;23.70;;;4.40;99.90;;;;;;4980771;28;20039;-76
2022/12/30 08:33:43;;;;;;;20.30;6.10;;;4.40;99.90;;;;;;4966181;28;20133;-76
2022/12/30 08:36:11;;;;;;;27.47;15.17;;;4.40;99.90;;;;;;4960878;28;20190;-76
2022/12/30 08:38:40;;;;;;;29.27;15.23;;;4.60;99.90;;;;;;4955511;28;20073;-76
2022/12/30 08:41:15;;;;;;;124.30;114.93;;;4.50;99.90;;;;;;4966392;28;20054;-76
2022/12/30 08:43:41;;;;;;;31.53;13.97;;;4.40;99.90;;;;;;4967815;28;20497;-76
2022/12/30 08:46:07;;;;;;;37.53;15.63;;;4.50;99.90;;;;;;4968074;28;20050;-76
2022/12/30 08:48:33;;;;;;;32.60;18.13;;;4.60;99.90;;;;;;4972678;28;20046;-76
2022/12/30 08:51:00;;;;;;;20.50;9.17;;;4.50;99.90;;;;;;4983014;28;20112;-76
2022/12/30 08:53:25;;;;;;;31.60;24.00;;;4.50;99.90;;;;;;4970235;28;20125;-76
2022/12/30 08:56:10;;;;;;;60.07;54.87;;;4.50;99.90;;;;;;4965686;28;20485;-75
2022/12/30 08:58:35;;;;;;;60.90;55.77;;;4.50;99.90;;;;;;4958405;28;20043;-76
2022/12/30 09:01:16;;;;;;;67.90;62.27;;;4.50;99.90;;;;;;4967921;28;20069;-76
2022/12/30 09:03:43;;;;;;;43.70;39.33;;;4.50;99.90;;;;;;4976545;28;20118;-76
2022/12/30 09:06:11;;;;;;;32.13;20.40;;;4.50;99.90;;;;;;4977773;28;20298;-76
2022/12/30 09:08:38;;;;;;;35.00;31.60;;;4.50;99.90;;;;;;4974442;28;20120;-76
2022/12/30 09:11:10;;;;;;;28.67;14.10;;;4.50;99.90;;;;;;4980362;28;20121;-76
2022/12/30 09:13:38;;;;;;;22.00;11.50;;;4.50;99.90;;;;;;4966186;28;20086;-76
2022/12/30 09:16:09;;;;;;;;;;;4.50;99.90;;;;;;4962567;28;20050;-76
2022/12/30 09:18:35;;;;;;;31.07;25.27;;;4.50;99.90;;;;;;4956536;28;20024;-75
2022/12/30 09:21:02;;;;;;;29.30;16.70;;;4.60;99.90;;;;;;4981167;28;20505;-76
2022/12/30 09:23:28;;;;;;;37.10;33.30;;;4.70;99.90;;;;;;4961752;28;20125;-76
2022/12/30 09:25:53;;;;;;;103.50;96.37;;;4.60;99.90;;;;;;4967176;28;20050;-75
2022/12/30 09:28:20;;;;;;;28.40;21.70;;;4.60;99.90;;;;;;4959751;28;20516;-75
2022/12/30 09:30:45;;;;;;;27.37;20.60;;;4.70;99.90;;;;;;4980172;28;20038;-76
2022/12/30 09:33:11;;;;;;;48.10;43.50;;;4.80;99.90;;;;;;4965650;28;20647;-76
2022/12/30 09:35:37;;;;;;;25.60;13.10;;;4.80;99.90;;;;;;4966530;28;20047;-76
2022/12/30 09:38:03;;;;;;;27.63;16.23;;;4.80;99.90;;;;;;4966015;28;20063;-76
2022/12/30 09:40:38;;;;;;;43.03;39.10;;;4.90;99.90;;;;;;4965534;28;20404;-75
2022/12/30 09:43:16;;;;;;;123.13;112.77;;;4.90;99.90;;;;;;4964947;28;20051;-76
2022/12/30 09:46:02;;;;;;;30.20;18.30;;;4.90;99.90;;;;;;4966385;28;20043;-76
2022/12/30 09:48:36;;;;;;;33.37;27.17;;;4.90;99.90;;;;;;4954765;28;20047;-76
2022/12/30 09:51:06;;;;;;;43.57;39.97;;;5.00;99.90;;;;;;4983404;28;20481;-75
2022/12/30 09:53:50;;;;;;;31.87;16.60;;;5.00;99.90;;;;;;4967764;28;20043;-76
2022/12/30 09:56:32;;;;;;;41.50;37.60;;;5.10;99.90;;;;;;4960661;28;20051;-76
2022/12/30 09:59:05;;;;;;;28.17;20.80;;;5.20;99.90;;;;;;4963580;28;20051;-76
2022/12/30 10:01:40;;;;;;;54.50;49.83;;;5.20;99.90;;;;;;4982479;28;20050;-76
2022/12/30 10:04:16;;;;;;;27.87;20.50;;;5.10;99.90;;;;;;4968402;28;20298;-76
2022/12/30 10:07:20;;;;;;;149.50;139.53;;;5.20;99.90;;;;;;4955468;28;20414;-76
2022/12/30 10:09:52;;;;;;;46.63;42.50;;;5.30;99.90;;;;;;4951498;28;20651;-76
2022/12/30 10:12:41;;;;;;;25.80;18.13;;;5.40;99.90;;;;;;4987910;28;20038;-76
2022/12/30 10:15:26;;;;;;;42.57;38.97;;;5.40;99.90;;;;;;4973844;28;20054;-76
2022/12/30 10:18:29;;;;;;;74.87;68.97;;;5.40;99.90;;;;;;4952756;28;20046;-76
2022/12/30 10:21:20;;;;;;;24.03;17.57;;;5.40;99.90;;;;;;4984087;28;20063;-76
2022/12/30 10:24:04;;;;;;;35.08;29.70;;;5.50;99.90;;;;;;4983353;28;20639;-76
2022/12/30 10:26:43;;;;;;;55.67;51.30;;;5.50;99.90;;;;;;4956117;28;20937;-75
2022/12/30 10:29:17;;;;;;;144.63;133.07;;;5.60;99.90;;;;;;4966404;28;20665;-76
2022/12/30 10:31:45;;;;;;;110.47;103.40;;;5.60;99.90;;;;;;4967356;28;20134;-76
2022/12/30 10:34:17;;;;;;;252.27;235.43;;;5.70;99.90;;;;;;4965002;28;20524;-75
2022/12/30 10:36:45;;;;;;;33.90;31.07;;;5.80;99.90;;;;;;4970422;28;20047;-76
2022/12/30 10:39:19;;;;;;;166.57;156.57;;;5.80;99.90;;;;;;4983120;28;20093;-76
2022/12/30 10:42:20;;;;;;;28.57;25.87;;;5.90;99.90;;;;;;4975237;28;20054;-75
2022/12/30 10:45:10;;;;;;;227.75;212.40;;;5.90;99.90;;;;;;4971207;28;20061;-76
2022/12/30 10:47:58;;;;;;;101.57;94.63;;;6.00;99.90;;;;;;4998698;28;20768;-76
2022/12/30 10:50:34;;;;;;;99.07;92.10;;;6.00;99.90;;;;;;5008542;28;20092;-76
2022/12/30 10:53:02;;;;;;;66.53;61.93;;;6.10;99.90;;;;;;5007195;28;20093;-76
2022/12/30 10:55:31;;;;;;;84.47;77.63;;;6.10;99.90;;;;;;5007221;28;20096;-76
2022/12/30 10:58:10;;;;;;;124.00;115.87;;;6.20;99.90;;;;;;4976678;28;20058;-76
2022/12/30 11:00:40;;;;;;;48.87;45.23;;;6.30;99.90;;;;;;4995943;28;20081;-75
2022/12/30 11:03:35;;;;;;;38.13;35.17;;;6.30;99.90;;;;;;4989095;28;20518;-76
2022/12/30 11:06:18;;;;;;;62.77;58.53;;;6.30;99.90;;;;;;5007698;28;20522;-74
2022/12/30 11:08:44;;;;;;;284.93;266.40;;;6.30;99.90;;;;;;4987440;28;20049;-76
2022/12/30 11:11:10;;;;;;;75.83;70.77;;;6.30;99.90;;;;;;4988487;28;20050;-76
2022/12/30 11:16:26;;;;;;;55.43;51.60;;;6.30;99.90;;;;;;4977762;28;20057;-76
2022/12/30 11:18:52;;;;;;;33.80;31.27;;;6.30;99.90;;;;;;4984535;28;20050;-76
2022/12/30 11:21:33;;;;;;;56.57;52.83;;;6.40;99.90;;;;;;4987673;28;20061;-76
2022/12/30 11:24:02;;;;;;;35.25;32.53;;;6.30;99.90;;;;;;4984854;28;20104;-76
2022/12/30 11:26:30;;;;;;;33.27;30.63;;;6.30;99.90;;;;;;4975340;28;20339;-76
2022/12/30 11:28:58;;;;;;;57.03;53.27;;;6.40;99.90;;;;;;4983916;28;20153;-76
2022/12/30 11:31:47;;;;;;;79.50;74.63;;;6.20;99.90;;;;;;4975068;28;20500;-77
2022/12/30 11:34:34;;;;;;;302.00;281.87;;;6.40;99.90;;;;;;4974804;28;20046;-76
2022/12/30 11:37:31;;;;;;;84.73;79.60;;;6.50;99.90;;;;;;4956016;28;20169;-76
2022/12/30 11:40:17;;;;;;;313.53;283.73;;;6.50;99.90;;;;;;4982535;28;20169;-76
2022/12/30 11:42:43;;;;;;;276.73;257.60;;;6.60;99.90;;;;;;4970829;28;20051;-75
2022/12/30 11:45:21;;;;;;;120.97;113.57;;;6.60;99.90;;;;;;4988208;28;20842;-75
2022/12/30 11:47:48;;;;;;;141.60;132.63;;;6.70;99.90;;;;;;4969904;28;20049;-75
2022/12/30 11:50:18;;;;;;;61.13;57.03;;;6.70;99.90;;;;;;4988587;28;20393;-76
2022/12/30 11:53:01;;;;;;;263.63;244.52;;;6.80;99.90;;;;;;4973461;28;20407;-76
2022/12/30 11:55:27;;;;;;;113.67;106.53;;;6.80;99.90;;;;;;5005816;28;20064;-76
2022/12/30 11:57:59;;;;;;;104.70;97.93;;;6.80;99.90;;;;;;4989995;28;20058;-75
2022/12/30 12:00:34;;;;;;;156.93;145.57;;;6.90;99.90;;;;;;5006557;28;20050;-76
2022/12/30 12:03:05;;;;;;;30.97;28.73;;;6.90;99.90;;;;;;4991830;28;20049;-76
2022/12/30 12:05:39;;;;;;;565.10;513.15;;;6.90;99.90;;;;;;4987130;28;20671;-76
2022/12/30 12:08:26;;;;;;;168.23;158.07;;;7.00;99.90;;;;;;4961927;28;20043;-76
2022/12/30 12:11:05;;;;;;;41.70;38.70;;;7.00;99.90;;;;;;4967674;28;20528;-76
2022/12/30 12:13:43;;;;;;;234.60;218.30;;;7.00;99.90;;;;;;4966167;28;20644;-76
2022/12/30 12:16:15;;;;;;;132.27;124.63;;;7.00;99.90;;;;;;4960952;28;20047;-75
2022/12/30 12:18:47;;;;;;;34.73;32.43;;;7.10;99.90;;;;;;4974100;28;20415;-76
2022/12/30 12:21:13;;;;;;;425.50;385.50;;;7.10;99.90;;;;;;4986034;28;20066;-76
2022/12/30 12:24:05;;;;;;;134.53;125.90;;;7.20;99.90;;;;;;4985015;28;20054;-76
2022/12/30 12:26:50;;;;;;;78.40;73.73;;;7.20;99.90;;;;;;4950596;28;20061;-76
2022/12/30 12:29:16;;;;;;;42.97;39.93;;;7.30;99.90;;;;;;4972319;28;20049;-76
2022/12/30 12:31:48;;;;;;;48.87;46.07;;;7.20;99.90;;;;;;4965106;28;20079;-76
2022/12/30 12:34:23;;;;;;;117.07;110.07;;;7.30;99.90;;;;;;4964136;28;20133;-76
2022/12/30 12:37:00;;;;;;;178.80;165.70;;;7.30;99.90;;;;;;4963614;28;20149;-76
2022/12/30 12:40:33;;;;;;;199.50;186.10;;;7.30;99.90;;;;;;4979258;28;20049;-76
2022/12/30 12:43:07;;;;;;;118.87;111.83;;;7.30;99.90;;;;;;4888513;28;20055;-75
2022/12/30 12:46:03;;;;;;;163.10;150.93;;;7.40;99.90;;;;;;4975513;28;20055;-76
2022/12/30 12:49:02;;;;;;;224.50;210.30;;;7.50;99.90;;;;;;4961364;28;20072;-76
2022/12/30 12:51:43;;;;;;;31.93;29.93;;;7.50;99.90;;;;;;4983875;28;20510;-76
2022/12/30 12:54:31;;;;;;;166.83;155.23;;;7.60;99.90;;;;;;4984505;28;20050;-75
2022/12/30 12:57:28;;;;;;;24.73;22.80;;;7.70;99.90;;;;;;4986933;28;20049;-76
2022/12/30 13:00:00;;;;;;;187.57;173.83;;;7.60;99.90;;;;;;4957487;28;20043;-76
2022/12/30 13:02:47;;;;;;;110.10;103.87;;;7.60;99.90;;;;;;4966421;28;20202;-76
2022/12/30 13:05:43;;;;;;;37.50;34.63;;;7.70;99.90;;;;;;4966408;28;20046;-76
2022/12/30 13:08:30;;;;;;;143.73;134.63;;;7.70;99.90;;;;;;4943501;28;20059;-76
2022/12/30 13:11:37;;;;;;;66.83;62.57;;;7.70;99.90;;;;;;4981126;28;20065;-76
2022/12/30 13:14:29;;;;;;;64.63;60.83;;;7.80;99.90;;;;;;4954400;28;20082;-76
2022/12/30 13:16:56;;;;;;;;;;;7.80;99.90;;;;;;4954160;28;20490;-76
2022/12/30 13:19:29;;;;;;;233.37;213.67;;;7.80;99.90;;;;;;4983413;28;19933;-76
2022/12/30 13:21:57;;;;;;;188.20;174.50;;;7.90;99.90;;;;;;5005701;28;20055;-76
2022/12/30 13:24:38;;;;;;;20.97;19.07;;;7.90;99.90;;;;;;4991520;28;20054;-76
2022/12/30 13:27:12;;;;;;;177.73;167.10;;;7.80;99.90;;;;;;4972757;28;20054;-76
2022/12/30 13:29:39;;;;;;;145.97;136.43;;;8.00;99.90;;;;;;5003914;28;20097;-75
2022/12/30 13:32:08;;;;;;;104.93;98.90;;;7.90;99.90;;;;;;4990714;28;20428;-75
2022/12/30 13:35:09;;;;;;;42.70;39.43;;;7.90;99.90;;;;;;5002533;28;20129;-76
2022/12/30 13:37:36;;;;;;;27.77;25.90;;;8.00;99.90;;;;;;4958328;28;20054;-76
2022/12/30 13:40:16;;;;;;;216.20;201.77;;;8.00;99.90;;;;;;5002819;28;20132;-76
2022/12/30 13:43:00;;;;;;;46.80;43.83;;;8.00;99.90;;;;;;5003062;28;20062;-75
2022/12/30 13:45:35;;;;;;;34.67;31.97;;;8.00;99.90;;;;;;5010172;28;20285;-76
2022/12/30 13:48:02;;;;;;;339.37;314.70;;;8.00;99.90;;;;;;4991756;28;20050;-75
2022/12/30 13:50:30;;;;;;;270.23;249.40;;;8.20;99.90;;;;;;5008363;28;20057;-75
2022/12/30 13:52:57;;;;;;;376.93;342.70;;;8.10;99.90;;;;;;5007773;28;20061;-75